createdAt,value
2022-10-28T00:02:12.448Z,100464.50
2022-10-28T00:05:02.281Z,100459.13
2022-10-28T00:07:51.595Z,100468.50
2022-10-28T00:10:40.736Z,100458.47
2022-10-28T00:13:31.649Z,100462.47
2022-10-28T00:16:23.629Z,100460.31
2022-10-28T00:19:15.550Z,100464.94
2022-10-28T00:22:04.320Z,100462.25
2022-10-28T00:24:53.585Z,100475.34
2022-10-28T00:27:45.069Z,100472.47
2022-10-28T00:30:34.011Z,100463.16
2022-10-28T00:33:23.335Z,100462.59
2022-10-28T00:36:21.212Z,100458.25
2022-10-28T00:39:16.471Z,100465.16
2022-10-28T00:42:08.270Z,100459.75
2022-10-28T00:45:06.749Z,100459.81
2022-10-28T00:47:56.624Z,100451.34
2022-10-28T00:50:53.986Z,100446.59
2022-10-28T00:53:45.100Z,100444.91
2022-10-28T00:56:38.317Z,100451.22
2022-10-28T00:59:29.699Z,100436.69
2022-10-28T01:02:19.756Z,100455.81
2022-10-28T01:05:09.586Z,100459.78
2022-10-28T01:08:03.630Z,100460.81
2022-10-28T01:11:14.004Z,100469.81
2022-10-28T01:14:19.212Z,100469.81
2022-10-28T01:17:30.304Z,100480.84
2022-10-28T01:20:34.937Z,100472.53
2022-10-28T01:23:44.787Z,100474.41
2022-10-28T01:26:33.667Z,100462.97
2022-10-28T01:29:31.654Z,100453.84
2022-10-28T01:32:52.301Z,100460.94
2022-10-28T01:35:56.711Z,100436.25
2022-10-28T01:39:07.949Z,100439.13
2022-10-28T01:42:28.588Z,100437.06
2022-10-28T01:45:28.835Z,100439.75
2022-10-28T01:48:23.691Z,100446.00
2022-10-28T01:51:22.964Z,100440.22
2022-10-28T01:54:14.137Z,100443.31
2022-10-28T01:57:06.146Z,100444.75
2022-10-28T01:59:55.315Z,100442.53
2022-10-28T02:02:46.361Z,100435.69
2022-10-28T02:05:41.131Z,100433.69
2022-10-28T02:09:05.427Z,100426.22
2022-10-28T02:12:18.062Z,100431.66
2022-10-28T02:15:39.159Z,100444.13
2022-10-28T02:18:41.730Z,100455.34
2022-10-28T02:22:11.878Z,100462.00
2022-10-28T02:25:22.793Z,100443.75
2022-10-28T02:28:17.230Z,100446.03
2022-10-28T02:31:17.626Z,100452.47
2022-10-28T02:34:11.823Z,100457.88
2022-10-28T02:37:03.175Z,100433.72
2022-10-28T02:39:56.341Z,100435.41
2022-10-28T02:42:52.926Z,100435.81
2022-10-28T02:45:48.752Z,100425.41
2022-10-28T02:48:49.830Z,100421.28
2022-10-28T02:51:44.704Z,100410.88
2022-10-28T02:54:38.291Z,100408.34
2022-10-28T02:57:31.370Z,100394.56
2022-10-28T03:00:26.314Z,100383.94
2022-10-28T03:03:15.896Z,100379.16
2022-10-28T03:06:05.808Z,100376.88
2022-10-28T03:08:54.971Z,100374.97
2022-10-28T03:11:43.872Z,100375.84
2022-10-28T03:14:33.239Z,100372.91
2022-10-28T03:17:22.860Z,100368.72
2022-10-28T03:20:12.684Z,100378.22
2022-10-28T03:23:02.516Z,100378.84
2022-10-28T03:25:53.641Z,100383.59
2022-10-28T03:28:45.760Z,100391.06
2022-10-28T03:31:34.762Z,100394.78
2022-10-28T03:34:24.384Z,100400.97
2022-10-28T03:37:13.683Z,100402.44
2022-10-28T03:40:05.816Z,100391.59
2022-10-28T03:42:55.018Z,100376.44
2022-10-28T03:45:45.089Z,100361.50
2022-10-28T03:48:36.527Z,100343.66
2022-10-28T03:51:25.478Z,100333.69
2022-10-28T03:54:15.525Z,100323.28
2022-10-28T03:57:04.810Z,100319.97
2022-10-28T03:59:57.948Z,100312.91
2022-10-28T04:02:54.736Z,100308.78
2022-10-28T04:05:45.006Z,100300.25
2022-10-28T04:08:34.647Z,100300.69
2022-10-28T04:11:24.261Z,100301.31
2022-10-28T04:14:13.789Z,100294.25
2022-10-28T04:17:03.516Z,100291.56
2022-10-28T04:19:52.744Z,100296.38
2022-10-28T04:22:41.875Z,100271.88
2022-10-28T04:25:30.904Z,100270.22
2022-10-28T04:28:20.293Z,100276.06
2022-10-28T04:31:10.998Z,100271.69
2022-10-28T04:34:00.118Z,100259.88
2022-10-28T04:36:48.977Z,100263.59
2022-10-28T04:39:41.361Z,100253.63
2022-10-28T04:42:30.575Z,100257.38
2022-10-28T04:45:19.696Z,100239.97
2022-10-28T04:48:12.808Z,100240.38
2022-10-28T04:51:02.083Z,100232.91
2022-10-28T04:53:50.684Z,100217.41
2022-10-28T04:56:39.681Z,100214.69
2022-10-28T04:59:31.345Z,100183.16
2022-10-28T05:02:20.429Z,100173.00
2022-10-28T05:05:10.087Z,100163.94
2022-10-28T05:07:59.175Z,100164.56
2022-10-28T05:10:51.136Z,100165.19
2022-10-28T05:13:40.214Z,100156.84
2022-10-28T05:16:29.242Z,100152.94
2022-10-28T05:19:18.336Z,100158.34
2022-10-28T05:22:07.720Z,100168.72
2022-10-28T05:24:57.199Z,100164.75
2022-10-28T05:27:49.406Z,100165.59
2022-10-28T05:30:38.960Z,100157.91
2022-10-28T05:33:30.458Z,100149.19
2022-10-28T05:36:37.633Z,100152.09
2022-10-28T05:39:26.781Z,100147.50
2022-10-28T05:42:15.909Z,100142.94
2022-10-28T05:45:04.928Z,100146.47
2022-10-28T05:47:55.868Z,100132.75
2022-10-28T05:50:45.271Z,100130.06
2022-10-28T05:53:33.755Z,100125.91
2022-10-28T05:56:23.346Z,100122.16
2022-10-28T05:59:13.095Z,100135.66
2022-10-28T06:02:02.260Z,100120.91
2022-10-28T06:04:51.349Z,100137.13
2022-10-28T06:07:42.242Z,100137.97
2022-10-28T06:10:36.824Z,100124.28
2022-10-28T06:13:24.542Z,100123.84
2022-10-28T06:16:13.363Z,100124.47
2022-10-28T06:19:02.883Z,100118.03
2022-10-28T06:21:58.112Z,100114.28
2022-10-28T06:24:47.220Z,100111.38
2022-10-28T06:27:36.591Z,100101.63
2022-10-28T06:30:27.057Z,100105.38
2022-10-28T06:33:15.954Z,100116.72
2022-10-28T06:36:08.355Z,100103.03
2022-10-28T06:38:57.392Z,100094.09
2022-10-28T06:41:50.073Z,100110.50
2022-10-28T06:44:45.380Z,100125.06
2022-10-28T06:47:40.593Z,100146.63
2022-10-28T06:50:31.507Z,100147.06
2022-10-28T06:53:22.349Z,100136.66
2022-10-28T06:56:12.503Z,100135.81
2022-10-28T06:59:01.963Z,100130.38
2022-10-28T07:01:51.542Z,100111.72
2022-10-28T07:04:43.691Z,100108.81
2022-10-28T07:07:43.700Z,100112.94
2022-10-28T07:10:33.875Z,100107.75
2022-10-28T07:13:23.033Z,100113.34
2022-10-28T07:16:12.098Z,100113.34
2022-10-28T07:19:00.979Z,100128.28
2022-10-28T07:21:51.890Z,100124.13
2022-10-28T07:24:43.622Z,100109.81
2022-10-28T07:27:33.241Z,100123.28
2022-10-28T07:30:22.711Z,100139.25
2022-10-28T07:33:12.017Z,100140.66
2022-10-28T07:36:02.478Z,100148.09
2022-10-28T07:38:54.615Z,100149.78
2022-10-28T07:41:43.465Z,100151.84
2022-10-28T07:44:32.367Z,100156.41
2022-10-28T07:47:25.731Z,100150.56
2022-10-28T07:50:15.106Z,100158.03
2022-10-28T07:53:10.624Z,100161.13
2022-10-28T07:56:04.481Z,100174.19
2022-10-28T07:58:53.722Z,100170.88
2022-10-28T08:01:43.193Z,100178.34
2022-10-28T08:04:33.317Z,100197.44
2022-10-28T08:07:24.781Z,100204.03
2022-10-28T08:10:15.441Z,100216.06
2022-10-28T08:13:05.246Z,100218.56
2022-10-28T08:15:55.564Z,100211.91
2022-10-28T08:18:44.912Z,100210.88
2022-10-28T08:21:34.131Z,100179.94
2022-10-28T08:24:23.421Z,100173.69
2022-10-28T08:27:12.311Z,100157.09
2022-10-28T08:30:01.291Z,100172.41
2022-10-28T08:32:58.856Z,100188.56
2022-10-28T08:35:53.740Z,100183.13
2022-10-28T08:38:46.056Z,100181.06
2022-10-28T08:41:47.160Z,100183.53
2022-10-28T08:44:42.148Z,100183.13
2022-10-28T08:47:54.823Z,100161.56
2022-10-28T08:50:52.832Z,100166.44
2022-10-28T08:53:59.815Z,100173.28
2022-10-28T08:56:49.436Z,100166.44
2022-10-28T08:59:40.682Z,100168.91
2022-10-28T09:02:35.298Z,100174.28
2022-10-28T09:05:27.391Z,100172.63
2022-10-28T09:08:24.875Z,100174.44
2022-10-28T09:11:37.107Z,100182.13
2022-10-28T09:14:31.979Z,100186.50
2022-10-28T09:17:26.841Z,100193.53
2022-10-28T09:20:46.473Z,100188.97
2022-10-28T09:23:51.274Z,100185.84
2022-10-28T09:26:54.490Z,100188.09
2022-10-28T09:30:06.678Z,100172.78
2022-10-28T09:33:07.678Z,100188.47
2022-10-28T09:35:58.443Z,100194.72
2022-10-28T09:38:48.102Z,100186.25
2022-10-28T09:41:40.109Z,100188.69
2022-10-28T09:44:35.392Z,100187.84
2022-10-28T09:47:39.400Z,100189.31
2022-10-28T09:50:31.371Z,100190.34
2022-10-28T09:53:59.352Z,100189.06
2022-10-28T09:56:48.626Z,100193.22
2022-10-28T09:59:38.598Z,100187.66
2022-10-28T10:02:33.978Z,100195.09
2022-10-28T10:05:24.419Z,100201.13
2022-10-28T10:08:21.010Z,100197.78
2022-10-28T10:11:46.838Z,100181.00
2022-10-28T10:14:57.487Z,100180.78
2022-10-28T10:17:49.300Z,100173.94
2022-10-28T10:21:06.543Z,100160.09
2022-10-28T10:23:57.110Z,100164.19
2022-10-28T10:26:46.460Z,100163.16
2022-10-28T10:29:37.421Z,100161.50
2022-10-28T10:32:32.013Z,100161.13
2022-10-28T10:35:36.489Z,100153.44
2022-10-28T10:38:25.550Z,100151.38
2022-10-28T10:41:35.341Z,100153.84
2022-10-28T10:44:27.277Z,100167.53
2022-10-28T10:47:20.917Z,100163.94
2022-10-28T10:50:35.853Z,100170.41
2022-10-28T10:53:26.722Z,100164.19
2022-10-28T10:56:28.253Z,100176.63
2022-10-28T10:59:27.246Z,100181.38
2022-10-28T11:02:42.798Z,100191.91
2022-10-28T11:05:37.945Z,100206.91
2022-10-28T11:08:35.289Z,100219.25
2022-10-28T11:11:25.591Z,100224.47
2022-10-28T11:14:14.503Z,100223.84
2022-10-28T11:17:25.810Z,100226.97
2022-10-28T11:20:28.203Z,100213.84
2022-10-28T11:23:36.139Z,100203.50
2022-10-28T11:26:26.881Z,100207.03
2022-10-28T11:29:19.401Z,100199.34
2022-10-28T11:32:48.876Z,100192.69
2022-10-28T11:36:17.312Z,100184.00
2022-10-28T11:39:40.660Z,100175.28
2022-10-28T11:43:08.247Z,100174.09
2022-10-28T11:46:12.372Z,100163.06
2022-10-28T11:49:22.421Z,100152.06
2022-10-28T11:52:20.629Z,100152.06
2022-10-28T11:55:24.905Z,100165.53
2022-10-28T11:58:41.931Z,100162.84
2022-10-28T12:01:52.737Z,100156.66
2022-10-28T12:05:10.692Z,100152.44
2022-10-28T12:08:15.095Z,100164.09
2022-10-28T12:11:25.798Z,100170.09
2022-10-28T12:14:39.788Z,100192.72
2022-10-28T12:18:16.578Z,100208.88
2022-10-28T12:21:26.119Z,100223.59
2022-10-28T12:24:20.044Z,100224.34
2022-10-28T12:27:29.531Z,100232.88
2022-10-28T12:30:51.558Z,100241.97
2022-10-28T12:33:50.775Z,100248.59
2022-10-28T12:36:56.358Z,100263.84
2022-10-28T12:40:14.570Z,100251.66
2022-10-28T12:43:25.140Z,100272.94
2022-10-28T12:46:50.366Z,100269.50
2022-10-28T12:49:55.257Z,100272.94
2022-10-28T12:53:07.295Z,100274.22
2022-10-28T12:56:04.755Z,100254.44
2022-10-28T12:58:53.864Z,100265.50
2022-10-28T13:01:46.494Z,100254.75
2022-10-28T13:04:38.541Z,100242.00
2022-10-28T13:08:01.831Z,100221.50
2022-10-28T13:10:59.114Z,100209.06
2022-10-28T13:14:02.523Z,100208.41
2022-10-28T13:17:18.876Z,100210.94
2022-10-28T13:20:25.855Z,100206.75
2022-10-28T13:23:41.592Z,100220.84
2022-10-28T13:26:36.575Z,100221.84
2022-10-28T13:29:31.724Z,100213.38
2022-10-28T13:32:35.599Z,100198.81
2022-10-28T13:35:29.347Z,100190.72
2022-10-28T13:38:23.036Z,100183.25
2022-10-28T13:41:27.383Z,100177.66
2022-10-28T13:44:28.654Z,100189.44
2022-10-28T13:47:36.240Z,100190.84
2022-10-28T13:50:34.728Z,100186.13
2022-10-28T13:53:26.600Z,100189.00
2022-10-28T13:56:46.840Z,100181.75
2022-10-28T13:59:54.300Z,100178.38
2022-10-28T14:03:04.680Z,100165.28
2022-10-28T14:05:57.785Z,100164.81
2022-10-28T14:08:47.224Z,100186.34
2022-10-28T14:11:36.348Z,100173.66
2022-10-28T14:14:25.704Z,100173.41
2022-10-28T14:17:29.049Z,100168.47
2022-10-28T14:20:41.777Z,100159.94
2022-10-28T14:23:30.494Z,100168.13
2022-10-28T14:26:19.505Z,100168.78
2022-10-28T14:29:29.621Z,100167.09
2022-10-28T14:32:33.665Z,100157.19
2022-10-28T14:35:32.313Z,100151.69
2022-10-28T14:39:05.901Z,100141.41
2022-10-28T14:42:02.059Z,100120.44
2022-10-28T14:44:59.443Z,100118.53
2022-10-28T14:48:03.861Z,100120.22
2022-10-28T14:50:56.824Z,100108.41
2022-10-28T14:53:47.070Z,100095.75
2022-10-28T14:56:42.895Z,100086.66
2022-10-28T14:59:38.344Z,100090.38
2022-10-28T15:02:31.871Z,100087.84
2022-10-28T15:05:24.314Z,100077.94
2022-10-28T15:08:13.702Z,100094.34
2022-10-28T15:11:05.999Z,100086.28
2022-10-28T15:14:01.632Z,100093.31
2022-10-28T15:16:51.141Z,100093.44
2022-10-28T15:19:40.444Z,100085.75
2022-10-28T15:22:35.064Z,100076.66
2022-10-28T15:25:25.076Z,100076.66
2022-10-28T15:28:14.982Z,100078.31
2022-10-28T15:31:04.232Z,100074.59
2022-10-28T15:33:53.624Z,100065.63
2022-10-28T15:36:50.164Z,100065.03
2022-10-28T15:39:40.873Z,100056.81
2022-10-28T15:42:41.884Z,100054.75
2022-10-28T15:45:34.420Z,100054.16
2022-10-28T15:48:28.686Z,100044.91
2022-10-28T15:51:21.426Z,100027.53
2022-10-28T15:54:20.403Z,100026.31
2022-10-28T15:57:30.740Z,100028.91
2022-10-28T16:00:24.570Z,100006.91
2022-10-28T16:03:26.407Z,99992.91
2022-10-28T16:06:31.843Z,100006.72
2022-10-28T16:09:35.271Z,100003.59
2022-10-28T16:12:25.734Z,99987.25
2022-10-28T16:15:16.279Z,99971.78
2022-10-28T16:18:05.292Z,99956.28
2022-10-28T16:20:56.027Z,99951.38
2022-10-28T16:23:45.352Z,99950.13
2022-10-28T16:26:34.442Z,99947.44
2022-10-28T16:29:23.247Z,99951.84
2022-10-28T16:32:13.905Z,99941.72
2022-10-28T16:35:02.677Z,99941.91
2022-10-28T16:37:55.370Z,99932.81
2022-10-28T16:40:51.418Z,99934.22
2022-10-28T16:43:41.126Z,99947.66
2022-10-28T16:46:31.966Z,99929.88
2022-10-28T16:49:23.705Z,99938.56
2022-10-28T16:52:20.971Z,99944.34
2022-10-28T16:55:18.198Z,99943.72
2022-10-28T16:58:07.739Z,99932.34
2022-10-28T17:00:57.505Z,99933.59
2022-10-28T17:03:46.901Z,99927.59
2022-10-28T17:06:35.698Z,99906.25
2022-10-28T17:09:25.403Z,99900.91
2022-10-28T17:12:28.100Z,99924.56
2022-10-28T17:15:17.319Z,99919.00
2022-10-28T17:18:06.308Z,99934.47
2022-10-28T17:21:02.937Z,99935.66
2022-10-28T17:23:52.639Z,99935.16
2022-10-28T17:26:41.596Z,99931.31
2022-10-28T17:29:31.002Z,99943.75
2022-10-28T17:32:19.803Z,99949.38
2022-10-28T17:35:09.273Z,99942.59
2022-10-28T17:37:58.524Z,99926.47
2022-10-28T17:40:56.815Z,99929.06
2022-10-28T17:43:45.973Z,99920.19
2022-10-28T17:46:35.107Z,99923.44
2022-10-28T17:49:24.396Z,99914.56
2022-10-28T17:52:14.121Z,99902.50
2022-10-28T17:55:04.066Z,99898.78
2022-10-28T17:57:53.499Z,99903.31
2022-10-28T18:00:43.014Z,99887.03
2022-10-28T18:03:35.618Z,99888.44
2022-10-28T18:06:29.549Z,99888.22
2022-10-28T18:09:18.277Z,99890.47
2022-10-28T18:12:07.635Z,99873.88
2022-10-28T18:14:58.663Z,99878.56
2022-10-28T18:17:52.129Z,99874.47
2022-10-28T18:20:41.271Z,99860.53
2022-10-28T18:23:31.789Z,99860.53
2022-10-28T18:26:23.725Z,99851.91
2022-10-28T18:29:14.136Z,99854.59
2022-10-28T18:32:05.529Z,99842.19
2022-10-28T18:34:54.870Z,99844.41
2022-10-28T18:37:44.637Z,99832.50
2022-10-28T18:40:33.866Z,99835.44
2022-10-28T18:43:24.063Z,99825.47
2022-10-28T18:46:14.304Z,99828.63
2022-10-28T18:49:03.749Z,99825.34
2022-10-28T18:52:11.970Z,99833.16
2022-10-28T18:55:02.035Z,99822.41
2022-10-28T18:57:52.131Z,99817.41
2022-10-28T19:00:41.333Z,99822.88
2022-10-28T19:03:30.171Z,99814.44
2022-10-28T19:06:22.470Z,99819.97
2022-10-28T19:09:11.637Z,99826.63
2022-10-28T19:12:00.898Z,99822.09
2022-10-28T19:14:50.215Z,99824.19
2022-10-28T19:17:42.525Z,99814.09
2022-10-28T19:20:32.095Z,99804.25
2022-10-28T19:23:21.397Z,99793.50
2022-10-28T19:26:10.885Z,99801.19
2022-10-28T19:29:00.219Z,99798.50
2022-10-28T19:31:49.042Z,99802.59
2022-10-28T19:34:41.028Z,99788.13
2022-10-28T19:37:30.877Z,99782.50
2022-10-28T19:40:20.464Z,99781.88
2022-10-28T19:43:10.160Z,99764.34
2022-10-28T19:46:15.319Z,99752.56
2022-10-28T19:49:07.541Z,99757.00
2022-10-28T19:51:56.900Z,99747.34
2022-10-28T19:54:48.707Z,99753.72
2022-10-28T19:57:41.356Z,99756.41
2022-10-28T20:00:30.365Z,99754.88
2022-10-28T20:03:21.649Z,99760.25
2022-10-28T20:06:13.011Z,99733.03
2022-10-28T20:09:04.426Z,99732.38
2022-10-28T20:11:53.519Z,99747.94
2022-10-28T20:14:43.915Z,99751.28
2022-10-28T20:17:33.262Z,99740.44
2022-10-28T20:20:22.424Z,99736.84
2022-10-28T20:23:11.911Z,99741.06
2022-10-28T20:26:01.448Z,99739.16
2022-10-28T20:28:51.212Z,99754.44
2022-10-28T20:31:44.328Z,99754.25
2022-10-28T20:34:36.049Z,99749.13
2022-10-28T20:37:24.919Z,99731.75
2022-10-28T20:40:13.970Z,99730.81
2022-10-28T20:43:03.166Z,99736.09
2022-10-28T20:46:18.929Z,99730.34
2022-10-28T20:49:14.817Z,99737.03
2022-10-28T20:52:07.089Z,99748.59
2022-10-28T20:54:55.774Z,99752.28
2022-10-28T20:57:45.369Z,99760.16
2022-10-28T21:00:34.207Z,99776.75
2022-10-28T21:03:23.785Z,99769.06
2022-10-28T21:09:07.983Z,99748.53
2022-10-28T21:11:57.241Z,99741.56
2022-10-28T21:14:47.175Z,99744.53
2022-10-28T21:17:36.278Z,99757.97
2022-10-28T21:20:25.290Z,99759.69
2022-10-28T21:23:17.405Z,99746.03
2022-10-28T21:26:09.796Z,99744.63
2022-10-28T21:28:58.559Z,99740.66
2022-10-28T21:31:48.247Z,99725.41
2022-10-28T21:34:37.435Z,99722.38
2022-10-28T21:37:26.454Z,99719.50
2022-10-28T21:40:16.350Z,99723.47
2022-10-28T21:43:05.584Z,99711.88
2022-10-28T21:45:54.609Z,99707.50
2022-10-28T21:48:45.242Z,99728.53
2022-10-28T21:51:35.078Z,99742.59
2022-10-28T21:54:24.546Z,99730.41
2022-10-28T21:57:14.538Z,99735.19
2022-10-28T22:00:06.887Z,99741.56
2022-10-28T22:03:21.017Z,99748.00
2022-10-28T22:06:11.736Z,99740.97
2022-10-28T22:09:02.268Z,99738.34
2022-10-28T22:11:51.299Z,99746.03
2022-10-28T22:14:44.543Z,99734.66
2022-10-28T22:17:34.981Z,99746.13
2022-10-28T22:23:14.895Z,99726.88
2022-10-28T22:26:07.431Z,99735.94
2022-10-28T22:28:57.682Z,99733.44
2022-10-28T22:31:48.143Z,99740.00
2022-10-28T22:34:40.191Z,99740.78
2022-10-28T22:37:29.378Z,99726.41
2022-10-28T22:40:18.616Z,99732.59
2022-10-28T22:43:07.283Z,99739.81
2022-10-28T22:46:01.563Z,99738.84
2022-10-28T22:48:51.064Z,99732.22
2022-10-28T22:51:40.901Z,99728.91
2022-10-28T22:54:30.323Z,99720.22
2022-10-28T22:57:19.498Z,99709.84
2022-10-28T23:00:09.438Z,99699.31
2022-10-28T23:02:59.593Z,99705.69
2022-10-28T23:05:50.661Z,99721.09
2022-10-28T23:08:41.531Z,99724.16
2022-10-28T23:11:31.087Z,99717.13
2022-10-28T23:14:23.978Z,99719.84
2022-10-28T23:17:12.946Z,99717.75
2022-10-28T23:20:02.187Z,99725.06
2022-10-28T23:22:51.605Z,99729.56
2022-10-28T23:25:41.054Z,99710.63
2022-10-28T23:28:30.740Z,99724.91
2022-10-28T23:31:20.621Z,99725.34
2022-10-28T23:34:10.123Z,99727.91
2022-10-28T23:36:59.019Z,99730.84
2022-10-28T23:39:53.104Z,99713.41
2022-10-28T23:42:41.936Z,99706.00
2022-10-28T23:45:30.704Z,99701.72
2022-10-28T23:48:20.393Z,99718.41
2022-10-28T23:51:11.066Z,99718.84
2022-10-28T23:54:00.902Z,99724.47
2022-10-28T23:56:50.244Z,99718.34
2022-10-28T23:59:39.315Z,99732.09
